Time;durP1;ratioP1;P1;durP2;ratioP2;P2;SDS_P1;SDS_P2;PMS_P1;PMS_P2;Temp;Humidity;BMP_temperature;BMP_pressure;BME280_temperature;BME280_humidity;BME280_pressure;Samples;Min_cycle;Max_cycle;Signal;HPM_P1;HPM_P2
2023/10/16 00:04:20;;;;;;;;;;;;;;;;;;;;;
2023/10/16 00:10:10;;;;;;;2.83;2.23;;;;;;;8.57;69.52;95964.44;6136952;23;20250;-88
2023/10/16 00:12:46;;;;;;;2.37;2.17;;;;;;;8.61;69.66;95950.34;6147737;23;20167;-89
2023/10/16 00:15:20;;;;;;;3.30;2.63;;;;;;;8.54;69.41;95948.53;6194525;23;20195;-89
2023/10/16 00:18:09;;;;;;;3.40;2.50;;;;;;;8.55;69.37;95938.13;6241377;23;20171;-89
2023/10/16 00:20:50;;;;;;;4.47;2.37;;;;;;;8.44;69.68;95935.84;6240824;23;20656;-89
2023/10/16 00:23:30;;;;;;;2.70;2.43;;;;;;;8.37;69.46;95924.56;6241532;23;20183;-89
2023/10/16 00:29:17;;;;;;;3.93;2.47;;;;;;;8.31;69.23;95932.84;6238289;23;20185;-89
2023/10/16 00:32:07;;;;;;;4.27;2.40;;;;;;;8.29;69.38;95940.69;6241746;23;20195;-89
2023/10/16 00:34:44;;;;;;;2.50;2.30;;;;;;;8.31;69.36;95943.09;6241549;23;20165;-89
2023/10/16 00:37:27;;;;;;;2.80;2.30;;;;;;;8.17;69.72;95931.66;6242340;23;20186;-89
2023/10/16 00:40:07;;;;;;;3.03;2.43;;;;;;;8.19;69.73;95950.28;6242160;23;20196;-88
2023/10/16 00:42:48;;;;;;;5.30;2.57;;;;;;;8.14;69.73;95931.97;6242563;23;20164;-89
2023/10/16 00:45:29;;;;;;;3.90;2.60;;;;;;;8.23;69.66;95933.63;6241872;23;20252;-89
2023/10/16 00:48:06;;;;;;;2.90;2.60;;;;;;;8.16;69.39;95919.00;6242249;23;20180;-89
2023/10/16 00:50:38;;;;;;;2.50;2.30;;;;;;;8.18;69.67;95928.16;6241236;23;20189;-88
2023/10/16 00:53:39;;;;;;;4.20;2.23;;;;;;;8.25;69.39;95920.66;6242195;23;20177;-89
2023/10/16 00:56:15;;;;;;;2.70;2.20;;;;;;;8.27;69.32;95906.69;6241925;23;20173;-89
2023/10/16 00:58:51;;;;;;;2.60;2.23;;;;;;;8.17;69.14;95898.31;6242668;23;20187;-89
2023/10/16 01:01:26;;;;;;;4.30;2.50;;;;;;;8.11;69.48;95911.75;6241321;23;20196;-89
2023/10/16 01:04:04;;;;;;;3.23;2.67;;;;;;;7.98;69.57;95906.25;6242110;23;20176;-89
2023/10/16 01:06:36;;;;;;;4.03;2.63;;;;;;;8.04;69.91;95904.84;6241306;23;20172;-89
2023/10/16 01:09:22;;;;;;;3.23;2.90;;;;;;;7.97;69.94;95902.06;6242349;23;20257;-89
2023/10/16 01:11:57;;;;;;;3.13;2.53;;;;;;;8.01;69.99;95917.97;6241859;23;20219;-88
2023/10/16 01:14:48;;;;;;;3.87;2.90;;;;;;;8.01;69.58;95916.19;6242299;23;20229;-87
2023/10/16 01:17:31;;;;;;;3.60;2.50;;;;;;;8.02;69.86;95919.56;6242238;23;20169;-89
2023/10/16 01:20:00;;;;;;;2.77;2.30;;;;;;;8.09;69.54;95903.41;6242324;23;20192;-89
2023/10/16 01:22:43;;;;;;;2.50;2.20;;;;;;;8.13;68.91;95883.38;6241131;23;20239;-89
2023/10/16 01:25:19;;;;;;;2.63;2.20;;;;;;;8.15;69.15;95882.28;6241949;23;20710;-88
2023/10/16 01:28:12;;;;;;;;;;;;;;;;;;;;;
2023/10/16 01:33:49;;;;;;;2.33;2.10;;;;;;;7.96;69.06;95873.06;6241622;23;20171;-89
2023/10/16 01:36:26;;;;;;;3.13;2.20;;;;;;;7.81;69.50;95887.41;6241766;23;20163;-88
2023/10/16 01:38:58;;;;;;;2.40;2.20;;;;;;;7.87;69.79;95906.53;6241220;23;20412;-89
2023/10/16 01:41:52;;;;;;;2.37;2.17;;;;;;;7.83;69.71;95913.69;6241196;23;20255;-89
2023/10/16 01:44:45;;;;;;;3.13;2.30;;;;;;;7.78;69.70;95909.97;6241546;23;20771;-89
2023/10/16 01:47:19;;;;;;;2.10;1.90;;;;;;;7.83;69.70;95895.75;6241360;23;20234;-89
2023/10/16 01:50:20;;;;;;;3.00;2.23;;;;;;;7.81;69.76;95897.66;6241202;23;20188;-88
2023/10/16 01:53:03;;;;;;;2.53;2.17;;;;;;;7.78;69.90;95895.41;6193889;23;20173;-89
2023/10/16 01:55:32;;;;;;;2.50;2.07;;;;;;;7.85;69.78;95904.09;6240118;23;20173;-89
2023/10/16 01:58:09;;;;;;;2.37;2.10;;;;;;;7.84;70.01;95904.25;6242736;23;20251;-90
2023/10/16 02:00:42;;;;;;;2.87;2.00;;;;;;;7.79;69.55;95881.63;6240349;23;20299;-90
2023/10/16 02:03:25;;;;;;;2.20;2.00;;;;;;;7.80;69.55;95885.00;6240762;23;20382;-89
2023/10/16 02:05:53;;;;;;;2.40;2.20;;;;;;;7.80;69.76;95895.25;6241183;23;20516;-89
2023/10/16 02:08:28;;;;;;;2.27;2.07;;;;;;;7.82;69.93;95899.28;6242076;23;20624;-89
2023/10/16 02:10:58;;;;;;;2.37;2.00;;;;;;;7.91;69.71;95892.41;6241062;23;20199;-88
2023/10/16 02:14:10;;;;;;;2.50;2.30;;;;;;;7.95;69.46;95881.72;6242117;23;20255;-89
2023/10/16 02:17:22;;;;;;;4.27;2.37;;;;;;;7.85;68.61;95857.16;6241715;23;20169;-89
2023/10/16 02:20:12;;;;;;;2.30;2.00;;;;;;;7.81;68.93;95850.72;6239876;23;20210;-89
2023/10/16 02:22:43;;;;;;;2.20;1.83;;;;;;;7.80;69.04;95852.47;6240279;23;20193;-89
2023/10/16 02:25:17;;;;;;;3.73;1.83;;;;;;;7.78;68.90;95838.22;6240771;23;20196;-89
2023/10/16 02:27:50;;;;;;;2.63;2.20;;;;;;;7.75;68.58;95836.75;6239994;23;20172;-89
2023/10/16 02:30:36;;;;;;;2.60;2.20;;;;;;;7.67;68.52;95828.22;6239721;23;20239;-89
2023/10/16 02:33:14;;;;;;;2.17;1.93;;;;;;;7.54;68.90;95832.00;6240217;23;20169;-89
2023/10/16 02:35:49;;;;;;;2.97;2.20;;;;;;;7.43;69.44;95857.06;6240490;23;20176;-89
2023/10/16 02:38:28;;;;;;;2.20;2.00;;;;;;;7.46;69.46;95855.00;6240051;23;20414;-89
2023/10/16 02:41:03;;;;;;;2.20;2.00;;;;;;;7.51;68.97;95839.97;6240549;23;20670;-89
2023/10/16 02:43:45;;;;;;;2.00;1.80;;;;;;;7.55;68.57;95815.66;6240131;23;20250;-89
2023/10/16 02:49:07;;;;;;;3.13;1.73;;;;;;;7.63;68.61;95804.66;6238338;23;20815;-89
2023/10/16 02:51:47;;;;;;;2.73;2.00;;;;;;;7.50;68.95;95825.59;6239795;23;20263;-89
2023/10/16 02:54:34;;;;;;;3.30;2.27;;;;;;;7.36;68.74;95812.50;6240083;23;20180;-89
2023/10/16 02:57:10;;;;;;;2.30;2.00;;;;;;;7.36;68.66;95805.63;6239598;23;20227;-89
2023/10/16 02:59:53;;;;;;;3.00;2.13;;;;;;;7.41;68.75;95806.00;6239276;23;20651;-89
2023/10/16 03:02:41;;;;;;;2.87;2.10;;;;;;;7.35;68.33;95790.41;6239617;23;20219;-89
2023/10/16 03:05:33;;;;;;;;;;;;;;;;;;;;;
2023/10/16 03:08:18;;;;;;;4.40;2.17;;;;;;;7.24;68.34;95805.09;6240221;23;20567;-89
2023/10/16 03:10:55;;;;;;;2.73;2.20;;;;;;;7.31;68.43;95794.25;6240167;23;20189;-89
2023/10/16 03:16:27;;;;;;;2.30;2.00;;;;;;;7.44;67.72;95777.50;6240005;23;20507;-89
2023/10/16 03:22:12;;;;;;;2.20;2.00;;;;;;;7.47;67.70;95772.09;6241232;22;20222;-89
2023/10/16 03:25:50;;;;;;;3.33;2.17;;;;;;;7.36;67.57;95768.97;6231776;23;20177;-89
2023/10/16 03:31:28;;;;;;;2.20;2.00;;;;;;;6.99;68.65;95799.94;6236222;23;20814;-88
2023/10/16 03:34:02;;;;;;;2.97;2.20;;;;;;;6.94;69.15;95813.16;6241773;23;20243;-88
2023/10/16 03:37:00;;;;;;;4.70;2.30;;;;;;;6.78;69.48;95828.41;6240794;23;20635;-89
2023/10/16 03:45:49;;;;;;;3.23;2.17;;;;;;;6.70;70.58;95880.31;6229259;23;20172;-89
2023/10/16 03:51:19;;;;;;;3.07;1.90;;;;;;;6.93;71.60;95924.19;6231806;23;20232;-89
2023/10/16 03:57:40;;;;;;;5.80;3.07;;;;;;;7.10;71.45;95925.97;6226265;23;20282;-89
2023/10/16 04:02:59;;;;;;;3.37;2.40;;;;;;;7.12;71.58;95925.81;6237021;23;20188;-89
2023/10/16 04:05:56;;;;;;;2.50;2.30;;;;;;;7.07;72.07;95933.13;6243030;23;20180;-88
2023/10/16 04:08:45;;;;;;;4.30;2.23;;;;;;;7.05;71.76;95932.47;6242693;23;20523;-88
2023/10/16 04:11:17;;;;;;;3.20;2.43;;;;;;;7.11;71.84;95927.59;6244988;23;20200;-88
2023/10/16 04:14:04;;;;;;;3.53;2.33;;;;;;;7.25;71.12;95905.75;6244591;23;20241;-89
2023/10/16 04:17:10;;;;;;;5.60;2.47;;;;;;;7.22;70.83;95896.63;6244393;23;20212;-88
2023/10/16 04:22:59;;;;;;;3.37;2.40;;;;;;;7.04;71.20;95884.78;6240570;23;20192;-88
2023/10/16 04:26:01;;;;;;;2.67;2.10;;;;;;;6.97;72.05;95902.47;6244276;23;20165;-88
2023/10/16 04:29:45;;;;;;;4.00;2.20;;;;;;;6.98;71.32;95891.28;6240662;23;20888;-89
2023/10/16 04:40:27;;;;;;;2.50;2.10;;;;;;;7.03;70.37;95840.47;6148370;23;20179;-91
2023/10/16 04:52:06;;;;;;;;;;;;;;;;;;;;;
2023/10/16 04:55:09;;;;;;;4.33;2.00;;;;;;;6.85;69.81;95802.09;6241987;23;20476;-89
2023/10/16 05:22:01;;;;;;;2.97;2.20;;;;;;;6.82;69.26;95763.19;6228816;23;20227;-89
2023/10/16 06:51:48;;;;;;;6.43;3.90;;;;;;;10.25;63.37;95623.44;6199394;22;20255;-91
2023/10/16 08:38:42;;;;;;;3.27;2.80;;;;;;;12.41;55.32;95240.78;5929202;24;20238;-91
2023/10/16 08:41:51;;;;;;;4.10;2.50;;;;;;;12.64;55.17;95253.34;5975451;24;20645;-90
2023/10/16 09:02:15;;;;;;;3.60;2.37;;;;;;;13.19;53.89;95194.53;6237105;23;20197;-91
2023/10/16 09:12:44;;;;;;;2.40;2.20;;;;;;;12.40;55.31;95247.75;5812508;24;20710;-91
2023/10/16 09:19:31;;;;;;;4.47;2.53;;;;;;;12.25;56.03;95285.03;6011451;23;20175;-91
2023/10/16 10:29:55;;;;;;;2.93;2.00;;;;;;;13.33;54.40;95214.97;6242522;23;20165;-89
2023/10/16 10:32:56;;;;;;;3.03;2.10;;;;;;;13.42;54.37;95238.84;6242852;23;20223;-91
2023/10/16 10:36:14;;;;;;;2.30;1.80;;;;;;;13.34;53.53;95161.47;6242593;23;20173;-90
2023/10/16 10:49:17;;;;;;;;;;;;;;;;;;;;;
2023/10/16 10:55:31;;;;;;;2.42;2.00;;;;;;;14.54;51.88;95116.63;5974997;24;20175;-90
2023/10/16 10:58:01;;;;;;;3.28;2.08;;;;;;;14.73;49.90;94985.28;6119831;23;20177;-89
2023/10/16 11:04:09;;;;;;;3.45;2.50;;;;;;;13.47;50.55;94957.91;6119072;23;20238;-87
2023/10/16 11:09:59;;;;;;;2.80;2.40;;;;;;;13.29;51.28;95019.88;6079492;23;20214;-87
2023/10/16 11:12:50;;;;;;;3.27;2.27;;;;;;;13.55;51.62;95037.03;6150724;23;20186;-88
2023/10/16 11:16:07;;;;;;;;;;;;;;;;;;;;;
2023/10/16 11:19:08;;;;;;;3.47;2.70;;;;;;;13.79;52.68;95100.19;6246450;23;20169;-88
2023/10/16 11:25:03;;;;;;;6.38;4.15;;;;;;;13.74;51.57;95028.38;6243028;23;20231;-88
2023/10/16 11:28:10;;;;;;;3.30;2.80;;;;;;;13.71;52.49;95054.66;6226852;23;20188;-89
2023/10/16 11:33:43;;;;;;;4.63;2.65;;;;;;;13.49;50.48;94942.97;6245179;22;20168;-90
2023/10/16 11:36:39;;;;;;;;;;;;;;;;;;;;;
2023/10/16 11:39:23;;;;;;;5.27;2.90;;;;;;;13.10;51.74;95002.63;6245522;23;20256;-90
2023/10/16 11:42:13;;;;;;;2.60;2.40;;;;;;;12.98;51.65;94975.88;6213045;23;20229;-88
2023/10/16 11:45:18;;;;;;;4.77;2.43;;;;;;;12.99;52.27;95016.22;6197648;23;20201;-87
2023/10/16 11:51:40;;;;;;;2.50;2.27;;;;;;;13.32;51.17;94952.25;6210924;23;20196;-87
2023/10/16 11:54:40;;;;;;;4.77;2.33;;;;;;;13.52;50.83;94951.31;6199962;23;20538;-88
2023/10/16 11:57:41;;;;;;;2.37;2.07;;;;;;;13.63;49.60;94891.16;6209638;23;20508;-89
2023/10/16 12:02:54;;;;;;;5.30;2.43;;;;;;;13.39;49.46;94852.16;6227711;22;20635;-88
2023/10/16 12:05:42;;;;;;;4.67;2.27;;;;;;;13.48;49.99;94891.47;6243340;23;20579;-87
2023/10/16 12:08:28;;;;;;;2.63;2.13;;;;;;;13.70;49.82;94903.00;6242824;23;20565;-88
2023/10/16 12:14:56;;;;;;;4.43;2.07;;;;;;;13.69;48.81;94831.59;6178965;23;20234;-88
2023/10/16 12:20:52;;;;;;;3.83;2.33;;;;;;;13.71;49.22;94844.31;6210707;23;20198;-88
2023/10/16 12:23:33;;;;;;;5.23;2.00;;;;;;;13.82;48.49;94804.81;6212716;23;20186;-88
2023/10/16 12:27:03;;;;;;;;;;;;;;;;;;;;;
2023/10/16 12:32:59;;;;;;;4.18;2.92;;;;;;;13.98;48.56;94811.19;6167981;23;20179;-90
2023/10/16 12:36:08;;;;;;;3.83;3.03;;;;;;;13.71;48.97;94819.22;6185982;23;20172;-88
2023/10/16 12:39:07;;;;;;;;;;;;;;;;;;;;;
2023/10/16 12:44:54;;;;;;;2.95;2.38;;;;;;;13.84;49.27;94849.38;6212976;23;20184;-88
2023/10/16 12:53:27;;;;;;;;;;;;;;;;;;;;;
2023/10/16 12:56:38;;;;;;;3.42;2.70;;;;;;;13.56;48.71;94784.38;6242427;23;20248;-88
2023/10/16 13:13:32;;;;;;;2.93;2.07;;;;;;;14.19;47.11;94704.63;6023420;23;20190;-88
2023/10/16 13:16:58;;;;;;;3.75;2.17;;;;;;;13.99;47.99;94741.09;6121153;23;20178;-87
2023/10/16 13:19:27;;;;;;;2.38;2.17;;;;;;;13.80;48.78;94776.56;6120791;23;20183;-87
2023/10/16 13:22:15;;;;;;;2.47;2.27;;;;;;;14.26;48.91;94803.69;6121434;23;20195;-88
2023/10/16 13:25:11;;;;;;;2.30;2.10;;;;;;;14.37;47.48;94714.13;6203860;23;21151;-88
2023/10/16 13:27:40;;;;;;;2.63;2.38;;;;;;;14.28;46.95;94679.97;6215193;23;20201;-88
2023/10/16 13:34:00;;;;;;;3.58;2.25;;;;;;;14.76;47.27;94695.44;6045718;23;20179;-89
2023/10/16 13:43:57;;;;;;;3.50;2.47;;;;;;;14.89;45.70;94605.50;6120816;23;20222;-88
2023/10/16 13:46:26;;;;;;;3.15;2.63;;;;;;;14.86;46.10;94627.47;6121027;23;20183;-89
2023/10/16 13:49:18;;;;;;;3.22;2.13;;;;;;;14.66;46.18;94606.31;6122330;23;20176;-88
2023/10/16 14:01:46;;;;;;;2.42;2.20;;;;;;;14.10;46.38;94590.22;6040891;23;20214;-88
2023/10/16 14:14:24;;;;;;;2.50;1.95;;;;;;;14.28;45.68;94570.44;6119125;23;20179;-90
2023/10/16 14:23:32;;;;;;;3.13;2.30;;;;;;;13.84;46.04;94562.19;6210224;23;20181;-88
2023/10/16 14:26:34;;;;;;;3.03;2.10;;;;;;;13.68;46.32;94566.16;6215688;23;20173;-87
2023/10/16 14:29:44;;;;;;;4.50;2.08;;;;;;;14.00;46.81;94613.28;6216618;23;20165;-89
2023/10/16 14:32:16;;;;;;;2.72;1.92;;;;;;;14.28;45.41;94567.84;6215413;23;20196;-87
2023/10/16 14:35:27;;;;;;;5.10;2.08;;;;;;;14.29;45.42;94559.06;6215457;23;20253;-89
2023/10/16 14:37:56;;;;;;;2.78;2.10;;;;;;;14.16;45.48;94568.63;6155842;23;20259;-87
2023/10/16 14:43:43;;;;;;;2.65;2.17;;;;;;;14.34;44.23;94476.34;6208914;23;20223;-89
2023/10/16 14:49:35;;;;;;;4.18;1.90;;;;;;;13.92;45.00;94489.38;6210373;23;20177;-89
2023/10/16 14:52:21;;;;;;;3.45;1.90;;;;;;;14.10;44.81;94501.44;6214273;23;20192;-90
2023/10/16 14:55:24;;;;;;;3.20;1.83;;;;;;;14.29;43.41;94443.34;6212687;23;20168;-88
2023/10/16 14:58:02;;;;;;;;;;;;;;;;;;;;;
2023/10/16 15:00:44;;;;;;;4.85;3.58;;;;;;;13.94;43.45;94411.53;6212636;23;20196;-89
2023/10/16 15:03:30;;;;;;;2.28;1.80;;;;;;;13.73;44.10;94441.34;6211873;23;20158;-88
2023/10/16 15:09:31;;;;;;;;;;;;;;;;;;;;;
2023/10/16 15:15:26;;;;;;;3.13;2.77;;;;;;;13.68;48.37;94705.03;6174265;23;20188;-89
2023/10/16 15:17:54;;;;;;;3.97;3.10;;;;;;;13.84;48.58;94730.34;6215562;23;20162;-88
2023/10/16 15:20:45;;;;;;;3.03;2.73;;;;;;;13.97;48.64;94732.78;6215281;23;20213;-89
2023/10/16 15:23:35;;;;;;;3.63;3.33;;;;;;;14.06;48.43;94715.91;6213395;23;20184;-88
2023/10/16 15:26:15;;;;;;;3.87;2.87;;;;;;;14.01;48.50;94720.19;6215306;23;20177;-90
2023/10/16 15:28:58;;;;;;;5.22;3.45;;;;;;;13.79;48.45;94712.88;6218335;23;20232;-89
2023/10/16 15:31:48;;;;;;;3.25;2.95;;;;;;;13.41;49.13;94735.59;6221231;23;20193;-90
2023/10/16 15:34:20;;;;;;;4.77;3.40;;;;;;;13.23;49.86;94774.34;6219124;23;20223;-90
2023/10/16 15:36:55;;;;;;;8.33;3.53;;;;;;;13.24;50.72;94812.91;6217315;23;20170;-89
2023/10/16 15:39:25;;;;;;;12.23;4.57;;;;;;;13.27;51.42;94848.69;6218837;23;20597;-89
2023/10/16 15:41:58;;;;;;;5.50;4.00;;;;;;;13.25;51.50;94884.28;6217420;23;20597;-89
2023/10/16 15:44:29;;;;;;;4.33;3.93;;;;;;;13.34;51.81;94877.84;6217733;23;20236;-90
2023/10/16 15:47:03;;;;;;;5.00;4.50;;;;;;;13.33;51.39;94880.63;6220011;23;20157;-89
2023/10/16 15:52:57;;;;;;;4.93;3.83;;;;;;;13.22;51.88;94895.06;6174804;23;20188;-89
2023/10/16 16:05:56;;;;;;;;;;;;;;;;;;;;;
2023/10/16 16:08:32;;;;;;;4.50;4.10;;;;;;;12.28;55.08;95062.69;6220519;23;20172;-89
2023/10/16 16:10:59;;;;;;;4.70;4.30;;;;;;;12.12;55.96;95101.78;6219954;23;20248;-89
2023/10/16 16:14:00;;;;;;;6.70;5.87;;;;;;;12.05;56.39;95127.56;6219802;23;20169;-89
2023/10/16 16:16:34;;;;;;;80.37;71.00;;;;;;;12.04;56.62;95138.88;6217232;23;20223;-90
2023/10/16 16:19:24;;;;;;;7.57;6.87;;;;;;;11.84;57.00;95143.22;6218579;23;20170;-89
2023/10/16 16:22:03;;;;;;;8.07;6.93;;;;;;;11.76;56.97;95142.38;6220462;23;20197;-88
2023/10/16 16:24:40;;;;;;;5.70;5.10;;;;;;;11.58;57.51;95162.72;6220839;23;20209;-88
2023/10/16 16:27:12;;;;;;;6.53;5.40;;;;;;;11.38;58.22;95185.84;6217509;23;20177;-86
2023/10/16 16:29:45;;;;;;;4.83;4.40;;;;;;;11.31;58.13;95194.53;6215394;23;20178;-88
2023/10/16 16:32:28;;;;;;;6.77;5.80;;;;;;;11.29;58.29;95196.50;6215978;23;20185;-90
2023/10/16 16:35:09;;;;;;;5.30;4.80;;;;;;;11.07;58.52;95222.34;6216631;23;20170;-88
2023/10/16 16:37:48;;;;;;;;;;;;;;;;;;;;;
2023/10/16 16:40:24;;;;;;;26.90;15.27;;;;;;;10.84;58.54;95213.25;6216250;23;20190;-89
2023/10/16 16:42:57;;;;;;;9.47;7.97;;;;;;;10.80;58.62;95210.25;6215466;23;20165;-89
2023/10/16 16:45:29;;;;;;;8.30;7.50;;;;;;;10.90;58.05;95218.47;6215749;23;20862;-89
2023/10/16 16:48:01;;;;;;;8.43;7.10;;;;;;;10.85;58.08;95217.41;6216241;23;20158;-89
2023/10/16 16:50:48;;;;;;;;;;;;;;;;;;;;;
2023/10/16 16:53:16;;;;;;;5.80;5.20;;;;;;;10.55;58.83;95235.63;6216303;23;20179;-88
2023/10/16 16:55:46;;;;;;;8.60;5.70;;;;;;;10.57;59.26;95258.59;6215807;23;20201;-88
2023/10/16 16:58:19;;;;;;;6.47;5.87;;;;;;;10.61;58.91;95252.88;6215078;23;20172;-89
2023/10/16 17:00:48;;;;;;;4.73;4.33;;;;;;;10.54;58.88;95244.31;6215778;23;20205;-89
2023/10/16 17:03:19;;;;;;;5.87;5.27;;;;;;;10.44;59.14;95246.38;6214961;23;20184;-87
2023/10/16 17:06:10;;;;;;;6.80;5.50;;;;;;;10.44;59.29;95274.69;6215501;23;20188;-90
2023/10/16 17:08:41;;;;;;;7.40;5.23;;;;;;;10.63;59.15;95281.00;6214097;23;20181;-89
2023/10/16 17:14:05;;;;;;;12.20;11.10;;;;;;;10.61;59.78;95288.13;6188282;23;20219;-86
2023/10/16 17:16:38;;;;;;;10.13;9.13;;;;;;;10.48;60.37;95322.25;6213547;23;20188;-88
2023/10/16 17:19:07;;;;;;;7.90;7.17;;;;;;;10.61;60.01;95316.44;6214229;23;20482;-89
2023/10/16 17:21:55;;;;;;;6.60;6.00;;;;;;;10.55;60.58;95341.16;6214896;23;20190;-87
2023/10/16 17:24:43;;;;;;;6.60;5.50;;;;;;;10.52;60.71;95346.66;6214627;23;20239;-87
2023/10/16 17:27:21;;;;;;;6.20;5.63;;;;;;;10.50;60.83;95358.13;6215949;23;20888;-89
2023/10/16 17:39:20;;;;;;;6.87;5.50;;;;;;;10.39;61.64;95400.56;6215147;23;20204;-88
2023/10/16 17:41:50;;;;;;;6.30;5.67;;;;;;;10.33;61.40;95406.41;6216106;23;20692;-87
2023/10/16 17:44:27;;;;;;;5.93;5.30;;;;;;;10.20;62.19;95425.03;6215822;23;20208;-89
2023/10/16 17:47:10;;;;;;;7.00;5.53;;;;;;;10.15;62.28;95427.34;6217151;23;20257;-89
2023/10/16 17:52:59;;;;;;;7.17;5.20;;;;;;;10.25;62.21;95416.78;6203933;23;20181;-91
2023/10/16 17:55:51;;;;;;;;;;;;;;;;;;;;;
2023/10/16 17:58:36;;;;;;;5.90;5.27;;;;;;;10.21;62.64;95416.34;6217278;23;20184;-88
2023/10/16 18:07:33;;;;;;;5.53;4.97;;;;;;;10.04;63.47;95461.19;6185460;23;20169;-88
2023/10/16 18:12:49;;;;;;;5.97;5.00;;;;;;;10.21;62.53;95431.00;6248023;23;20184;-87
2023/10/16 18:15:27;;;;;;;5.47;4.97;;;;;;;10.29;62.41;95428.34;6249613;23;20620;-88
2023/10/16 18:20:56;;;;;;;16.77;15.10;;;;;;;10.10;63.00;95442.50;6196901;22;20185;-89
2023/10/16 18:26:59;;;;;;;;;;;;;;;;;;;;;
2023/10/16 18:32:39;;;;;;;6.13;5.43;;;;;;;9.97;62.63;95414.84;6247995;23;20181;-87
2023/10/16 18:35:38;;;;;;;6.30;5.70;;;;;;;9.91;62.40;95407.81;6249026;23;20177;-88
2023/10/16 18:38:34;;;;;;;8.47;7.00;;;;;;;9.75;62.59;95402.84;6249373;23;20327;-88
2023/10/16 18:41:12;;;;;;;7.87;5.73;;;;;;;9.75;62.75;95414.91;6249426;22;20191;-89
2023/10/16 18:43:40;;;;;;;8.73;6.93;;;;;;;9.72;62.63;95402.38;6250488;23;20173;-89
2023/10/16 18:46:12;;;;;;;6.83;6.13;;;;;;;9.61;63.04;95411.34;6249745;23;20197;-89
2023/10/16 18:48:57;;;;;;;6.27;5.30;;;;;;;9.66;63.24;95416.72;6250526;22;20167;-89
2023/10/16 18:51:28;;;;;;;5.67;5.17;;;;;;;9.31;64.05;95438.69;6249723;23;20199;-88
2023/10/16 18:54:19;;;;;;;8.03;6.80;;;;;;;9.33;64.33;95462.47;6250237;22;20184;-89
2023/10/16 19:02:31;;;;;;;;;;;;;;;;;;;;;
2023/10/16 19:08:31;;;;;;;5.57;5.03;;;;;;;9.06;65.58;95507.41;6245556;22;20177;-88
2023/10/16 19:14:05;;;;;;;7.13;5.93;;;;;;;9.00;65.76;95520.94;6250156;22;20216;-87
2023/10/16 19:16:54;;;;;;;;;;;;;;;;;;;;;
2023/10/16 19:19:32;;;;;;;6.37;5.67;;;;;;;8.92;66.25;95531.22;6250859;22;20215;-87
2023/10/16 19:22:08;;;;;;;7.33;6.37;;;;;;;8.89;66.94;95555.47;6251727;22;20508;-88
2023/10/16 19:24:43;;;;;;;6.67;5.70;;;;;;;9.08;65.89;95533.72;6251095;23;20165;-89
2023/10/16 19:34:17;;;;;;;6.70;5.77;;;;;;;9.08;65.89;95530.34;6183384;23;20783;-87
2023/10/16 19:37:14;;;;;;;8.27;6.30;;;;;;;9.03;65.80;95530.88;6184488;23;20181;-87
2023/10/16 19:43:15;;;;;;;6.33;5.70;;;;;;;9.06;65.77;95533.09;5929202;24;20180;-87
2023/10/16 19:46:39;;;;;;;5.80;5.20;;;;;;;8.99;66.03;95532.19;6010561;23;20194;-87
2023/10/16 19:49:09;;;;;;;7.23;5.77;;;;;;;8.94;66.31;95547.28;6248738;23;20181;-87
2023/10/16 19:51:58;;;;;;;7.37;6.17;;;;;;;8.89;66.24;95550.34;6249386;23;20713;-86
2023/10/16 19:54:36;;;;;;;7.50;5.70;;;;;;;8.81;66.58;95547.81;6248592;23;20165;-87
2023/10/16 19:57:23;;;;;;;;;;;;;;;;;;;;;
2023/10/16 20:05:54;;;;;;;6.80;6.07;;;;;;;8.63;67.15;95568.56;6234441;22;20570;-89
2023/10/16 20:08:40;;;;;;;7.23;6.33;;;;;;;8.59;67.45;95585.25;6249399;23;20169;-86
2023/10/16 20:11:17;;;;;;;7.07;6.37;;;;;;;8.50;67.64;95591.34;6248766;23;20945;-87
2023/10/16 20:13:50;;;;;;;10.23;6.30;;;;;;;8.49;67.77;95588.94;6250624;23;20160;-87
2023/10/16 20:16:30;;;;;;;7.20;6.23;;;;;;;8.57;67.70;95594.88;6249371;23;20168;-86
2023/10/16 20:19:07;;;;;;;6.47;5.70;;;;;;;8.58;67.26;95583.66;6248950;22;20183;-88
2023/10/16 20:21:36;;;;;;;7.80;7.00;;;;;;;8.40;68.22;95597.63;6249769;23;20195;-88
2023/10/16 20:24:06;;;;;;;6.90;6.20;;;;;;;8.39;68.36;95608.88;6251251;23;20203;-88
2023/10/16 20:26:56;;;;;;;6.90;6.20;;;;;;;8.47;68.30;95598.56;6251892;23;20229;-89
2023/10/16 20:29:37;;;;;;;7.73;6.50;;;;;;;8.45;67.96;95596.19;6250892;22;20173;-89
2023/10/16 20:32:26;;;;;;;9.60;6.60;;;;;;;8.35;68.56;95599.88;6251905;23;20219;-87
2023/10/16 20:35:03;;;;;;;6.77;6.07;;;;;;;8.42;68.15;95605.97;6251498;22;20169;-87
2023/10/16 20:37:30;;;;;;;7.50;6.30;;;;;;;8.31;68.61;95614.75;6251434;23;20176;-88
2023/10/16 20:40:09;;;;;;;7.23;6.37;;;;;;;8.38;68.68;95609.81;6251645;22;20231;-88
2023/10/16 20:42:46;;;;;;;7.93;6.17;;;;;;;8.28;68.70;95613.31;6251274;23;20234;-87
2023/10/16 20:45:20;;;;;;;6.80;6.20;;;;;;;8.32;68.72;95627.47;6250540;22;20267;-88
2023/10/16 20:48:21;;;;;;;;;;;;;;;;;;;;;
2023/10/16 20:50:51;;;;;;;6.80;6.10;;;;;;;8.36;69.03;95616.88;6251922;22;20593;-88
2023/10/16 20:53:27;;;;;;;6.90;6.20;;;;;;;8.40;68.44;95623.28;6250489;23;20662;-88
2023/10/16 20:55:54;;;;;;;9.83;7.30;;;;;;;8.35;68.56;95616.06;6251378;23;20172;-89
2023/10/16 20:58:22;;;;;;;7.23;6.53;;;;;;;8.34;68.90;95619.59;6251464;23;20173;-89
2023/10/16 21:00:54;;;;;;;6.97;6.27;;;;;;;8.33;68.70;95630.81;6250642;22;20263;-88
2023/10/16 21:03:26;;;;;;;7.47;6.77;;;;;;;8.28;69.26;95631.28;6250267;22;20162;-87
2023/10/16 21:06:22;;;;;;;7.60;6.43;;;;;;;8.41;68.70;95630.03;6250404;23;20270;-88
2023/10/16 21:08:54;;;;;;;6.97;6.27;;;;;;;8.52;68.69;95627.91;6235076;22;20674;-89
2023/10/16 21:11:31;;;;;;;8.13;6.63;;;;;;;8.60;68.17;95616.84;6252585;23;20197;-86
2023/10/16 21:14:22;;;;;;;7.10;6.33;;;;;;;8.46;68.47;95613.19;6254955;22;20157;-89
2023/10/16 21:16:50;;;;;;;7.20;6.50;;;;;;;8.51;68.18;95616.06;6250954;23;20248;-88
2023/10/16 21:19:23;;;;;;;7.60;6.83;;;;;;;8.41;68.54;95612.88;6250965;23;20548;-88
2023/10/16 21:21:52;;;;;;;7.87;6.97;;;;;;;8.37;69.03;95613.34;6251526;23;20203;-89
2023/10/16 21:24:33;;;;;;;7.57;6.80;;;;;;;8.39;68.84;95616.56;6251891;23;20199;-88
2023/10/16 21:27:00;;;;;;;7.80;6.97;;;;;;;8.36;69.11;95620.25;6250969;23;20184;-89
2023/10/16 21:29:28;;;;;;;7.43;6.70;;;;;;;8.32;68.79;95609.50;6251146;23;20176;-88
2023/10/16 21:32:01;;;;;;;8.33;6.93;;;;;;;8.31;69.03;95614.75;6251753;23;20196;-89
2023/10/16 21:34:39;;;;;;;7.03;6.33;;;;;;;8.35;68.93;95610.94;6252006;23;20157;-89
2023/10/16 21:37:20;;;;;;;7.07;6.37;;;;;;;8.41;68.59;95609.50;6251078;23;20165;-88
2023/10/16 21:40:21;;;;;;;;;;;;;;;;;;;;;
2023/10/16 21:43:00;;;;;;;7.17;6.47;;;;;;;8.49;68.58;95579.50;6252020;23;20575;-88
2023/10/16 21:45:43;;;;;;;8.37;7.20;;;;;;;8.58;68.23;95578.53;6250406;23;20192;-86
2023/10/16 21:48:15;;;;;;;7.30;6.60;;;;;;;8.59;68.00;95575.00;6251255;23;20210;-89
2023/10/16 21:50:52;;;;;;;6.60;6.00;;;;;;;8.49;68.47;95582.06;6251398;22;20196;-88
2023/10/16 21:53:30;;;;;;;7.20;6.50;;;;;;;8.51;68.46;95576.75;6250496;23;20168;-89
2023/10/16 21:56:00;;;;;;;7.73;7.00;;;;;;;8.45;68.76;95580.81;6251481;23;20576;-88
2023/10/16 21:58:38;;;;;;;7.23;6.53;;;;;;;8.52;68.45;95583.50;6251534;23;20201;-88
2023/10/16 22:01:27;;;;;;;;;;;;;;;;;;;;;
2023/10/16 22:03:54;;;;;;;6.80;6.20;;;;;;;8.54;68.48;95590.06;6250739;23;20195;-87
2023/10/16 22:06:30;;;;;;;8.27;7.47;;;;;;;8.42;68.84;95588.03;6251093;23;20197;-88
2023/10/16 22:09:09;;;;;;;7.27;6.57;;;;;;;8.41;68.62;95594.91;6250338;22;20176;-88
2023/10/16 22:11:44;;;;;;;7.13;6.43;;;;;;;8.55;68.75;95583.97;6252012;22;20227;-87
2023/10/16 22:14:18;;;;;;;6.73;6.13;;;;;;;8.69;67.72;95568.84;6250463;23;20165;-88
2023/10/16 22:16:47;;;;;;;7.07;6.37;;;;;;;8.43;67.95;95567.34;6251055;22;20183;-88
2023/10/16 22:19:23;;;;;;;6.97;6.30;;;;;;;8.46;68.22;95577.28;6252454;23;20181;-87
2023/10/16 22:21:56;;;;;;;6.47;5.87;;;;;;;8.54;68.06;95564.41;6253127;23;20215;-87
2023/10/16 22:24:31;;;;;;;6.90;6.20;;;;;;;8.50;67.68;95552.06;6252926;23;20161;-89
2023/10/16 22:27:19;;;;;;;7.30;6.60;;;;;;;8.18;68.78;95565.72;6253127;22;20184;-88
2023/10/16 22:29:46;;;;;;;6.80;6.20;;;;;;;8.04;69.90;95592.81;6252933;23;20686;-89
2023/10/16 22:32:26;;;;;;;7.33;6.63;;;;;;;8.10;69.52;95601.63;6252385;23;20203;-89
2023/10/16 22:34:54;;;;;;;7.13;6.43;;;;;;;8.13;69.27;95588.47;6252919;23;20153;-89
2023/10/16 22:37:25;;;;;;;7.17;6.47;;;;;;;8.11;69.68;95583.50;6253060;22;20180;-89
2023/10/16 22:39:53;;;;;;;7.47;6.77;;;;;;;8.16;69.47;95591.53;6254088;23;20181;-88
2023/10/16 22:42:27;;;;;;;7.20;6.50;;;;;;;8.18;69.51;95581.13;6254272;23;20176;-89